.
WxDataArchive / Data Records for 2012-01-04
2012-01-03 January 2012 2012-01-05

Data Records for Wednesday, 04 January 2012

Time	Temp	Chill	HIndex	Humid	Dewpt	 Wind 	HiWind	WindDir	Rain 	Barom 
-----	----	-----	------	-----	-----	------	------	-------	-----	----- 
00:00	21.4	21.4	21.4	58	8.9	1	3	248	0.00	30.219 
00:05	21.4	21.4	21.4	58	8.9	1	3	248	0.00	30.219 
00:10	21.6	21.6	21.6	58	9.1	1	4	248	0.00	30.219 
00:15	21.4	21.4	21.4	58	8.9	0	2	248	0.00	30.215 
00:20	21.4	21.4	21.4	59	9.3	0	2	248	0.00	30.215 
00:25	21.3	21.3	21.3	59	9.2	0	2	248	0.00	30.215 
00:30	21.3	21.3	21.3	59	9.2	1	3	248	0.00	30.220 
00:35	21.1	21.1	21.1	59	9.0	0	3	248	0.00	30.220 
00:40	21.1	21.1	21.1	60	9.4	0	2	248	0.00	30.220 
00:45	21.0	21.0	21.0	60	9.3	0	2	248	0.00	30.220 
00:50	20.8	20.8	20.8	60	9.1	0	2	248	0.00	30.220 
00:55	20.8	20.8	20.8	61	9.5	0	2	248	0.00	30.220 
01:00	20.6	20.6	20.6	61	9.3	0	1	248	0.00	30.214 
01:05	20.6	20.6	20.6	62	9.7	0	2	248	0.00	30.214 
01:10	20.6	20.6	20.6	62	9.7	0	3	248	0.00	30.214 
01:15	20.8	20.8	20.8	62	9.9	0	2	248	0.00	30.202 
01:20	20.8	20.8	20.8	63	10.2	0	1	248	0.00	30.202 
01:25	20.6	20.6	20.6	63	10.0	0	2	248	0.00	30.202 
01:30	20.6	20.6	20.6	63	10.0	1	3	112	0.00	30.184 
01:35	20.5	20.5	20.5	63	9.9	1	3	112	0.00	30.184 
01:40	20.5	20.5	20.5	63	9.9	0	3	90	0.00	30.184 
01:45	20.3	20.3	20.3	64	10.1	0	2	90	0.00	30.172 
01:50	20.3	20.3	20.3	64	10.1	0	3	112	0.00	30.172 
01:55	20.2	20.2	20.2	64	10.0	1	3	112	0.00	30.172 
02:00	20.2	20.2	20.2	64	10.0	1	2	112	0.00	30.156 
02:05	20.2	20.2	20.2	64	10.0	1	3	112	0.00	30.156 
02:10	20.2	20.2	20.2	64	10.0	0	2	112	0.00	30.156 
02:15	20.2	20.2	20.2	64	10.0	1	4	90	0.00	30.140 
02:20	20.3	20.3	20.3	64	10.1	1	3	90	0.00	30.140 
02:25	20.3	20.3	20.3	64	10.1	1	4	112	0.00	30.140 
02:30	20.3	20.3	20.3	64	10.1	1	3	112	0.00	30.137 
02:35	20.2	20.2	20.2	64	10.0	0	2	112	0.00	30.137 
02:40	20.2	20.2	20.2	65	10.3	0	2	112	0.00	30.137 
02:45	20.2	20.2	20.2	65	10.3	0	4	112	0.00	30.137 
02:50	20.2	20.2	20.2	65	10.3	0	3	90	0.00	30.137 
02:55	20.2	20.2	20.2	65	10.3	0	1	90	0.00	30.137 
03:00	20.2	20.2	20.2	66	10.7	0	2	90	0.00	30.137 
03:05	20.2	20.2	20.2	65	10.3	0	1	90	0.00	30.137 
03:10	20.0	20.0	20.0	66	10.5	0	1	90	0.00	30.137 
03:15	20.0	20.0	20.0	66	10.5	0	3	90	0.00	30.136 
03:20	20.0	20.0	20.0	66	10.5	0	1	90	0.00	30.136 
03:25	20.0	20.0	20.0	66	10.5	0	2	90	0.00	30.136 
03:30	20.0	20.0	20.0	66	10.5	0	1	90	0.00	30.125 
03:35	20.2	20.2	20.2	66	10.7	0	3	112	0.00	30.125 
03:40	20.2	20.2	20.2	66	10.7	0	2	112	0.00	30.125 
03:45	20.3	20.3	20.3	66	10.8	0	2	248	0.00	30.122 
03:50	20.3	20.3	20.3	66	10.8	0	1	248	0.00	30.122 
03:55	20.3	20.3	20.3	66	10.8	0	1	248	0.00	30.122 
04:00	20.5	20.5	20.5	66	11.0	0	1	248	0.00	30.107 
04:05	20.6	20.6	20.6	66	11.1	0	2	248	0.00	30.107 
04:10	21.0	21.0	21.0	65	11.1	0	2	248	0.00	30.107 
04:15	21.1	21.1	21.1	65	11.2	0	2	248	0.00	30.095 
04:20	21.3	21.3	21.3	65	11.4	0	3	248	0.00	30.095 
04:25	21.4	21.4	21.4	64	11.1	0	2	248	0.00	30.095 
04:30	21.6	21.6	21.6	64	11.3	1	3	248	0.00	30.086 
04:35	21.6	21.6	21.6	64	11.3	0	2	248	0.00	30.086 
04:40	21.8	21.8	21.8	63	11.2	0	2	248	0.00	30.086 
04:45	21.8	21.8	21.8	63	11.2	1	4	248	0.00	30.078 
04:50	21.8	21.8	21.8	62	10.8	1	5	248	0.00	30.078 
04:55	21.9	21.9	21.9	62	10.9	1	4	270	0.00	30.078 
05:00	21.9	21.9	21.9	62	10.9	1	4	270	0.00	30.076 
05:05	21.9	21.9	21.9	62	10.9	1	5	248	0.00	30.076 
05:10	21.9	21.9	21.9	62	10.9	0	3	248	0.00	30.076 
05:15	22.1	22.1	22.1	62	11.1	1	4	248	0.00	30.072 
05:20	22.1	22.1	22.1	62	11.1	0	3	248	0.00	30.072 
05:25	22.1	22.1	22.1	62	11.1	1	3	248	0.00	30.072 
05:30	22.1	22.1	22.1	62	11.1	1	3	248	0.00	30.064 
05:35	22.1	22.1	22.1	62	11.1	1	3	248	0.00	30.064 
05:40	22.1	22.1	22.1	62	11.1	0	2	248	0.00	30.064 
05:45	22.1	22.1	22.1	62	11.1	0	6	248	0.00	30.061 
05:50	21.9	21.9	21.9	62	10.9	0	3	248	0.00	30.061 
05:55	22.1	22.1	22.1	62	11.1	0	2	248	0.00	30.061 
06:00	21.9	21.9	21.9	62	10.9	0	2	248	0.00	30.061 
06:05	21.9	21.9	21.9	62	10.9	0	3	248	0.00	30.061 
06:10	21.9	21.9	21.9	63	11.3	0	4	248	0.00	30.061 
06:15	22.1	22.1	22.1	63	11.5	0	2	248	0.00	30.059 
06:20	22.1	22.1	22.1	63	11.5	0	2	248	0.00	30.059 
06:25	22.1	22.1	22.1	63	11.5	0	3	248	0.00	30.059 
06:30	22.1	22.1	22.1	63	11.5	1	5	248	0.00	30.051 
06:35	22.1	22.1	22.1	63	11.5	0	3	248	0.00	30.051 
06:40	22.2	22.2	22.2	63	11.6	0	2	248	0.00	30.051 
06:45	22.2	22.2	22.2	63	11.6	0	3	248	0.00	30.044 
06:50	22.4	22.4	22.4	63	11.7	1	4	248	0.00	30.044 
06:55	22.7	22.7	22.7	63	12.0	0	4	248	0.00	30.044 
07:00	22.9	22.9	22.9	63	12.2	1	3	248	0.00	30.047 
07:05	23.0	23.0	23.0	63	12.3	0	3	248	0.00	30.047 
07:10	23.2	23.2	23.2	63	12.5	0	3	248	0.00	30.047 
07:15	23.3	23.3	23.3	63	12.6	1	4	248	0.00	30.042 
07:20	23.5	23.5	23.5	62	12.4	1	5	248	0.00	30.042 
07:25	23.6	23.6	23.6	62	12.5	1	4	248	0.00	30.042 
07:30	23.9	23.9	23.9	62	12.8	2	7	248	0.00	30.034 
07:35	23.9	23.9	23.9	62	12.8	1	4	248	0.00	30.034 
07:40	23.9	23.9	23.9	62	12.8	1	5	248	0.00	30.034 
07:45	24.1	24.1	24.1	62	13.0	1	6	248	0.00	30.033 
07:50	24.1	24.1	24.1	62	13.0	1	4	202	0.00	30.033 
07:55	24.2	24.2	24.2	62	13.1	1	5	248	0.00	30.033 
08:00	24.2	24.2	24.2	62	13.1	1	5	248	0.00	30.027 
08:05	24.4	24.4	24.4	62	13.3	1	3	248	0.00	30.027 
08:10	24.5	24.5	24.5	62	13.4	2	4	248	0.00	30.027 
08:15	24.7	24.7	24.7	62	13.6	2	5	248	0.00	30.026 
08:20	24.7	24.7	24.7	62	13.6	1	5	248	0.00	30.026 
08:25	24.8	24.8	24.8	62	13.7	2	5	248	0.00	30.026 
08:30	25.0	25.0	25.0	62	13.8	1	4	248	0.00	30.019 
08:35	25.1	25.1	25.1	63	14.3	2	5	225	0.00	30.019 
08:40	25.3	25.3	25.3	62	14.1	2	7	248	0.00	30.019 
08:45	25.3	25.3	25.3	62	14.1	2	5	248	0.00	30.018 
08:50	25.4	25.4	25.4	62	14.2	2	5	248	0.00	30.018 
08:55	25.6	25.6	25.6	62	14.4	1	6	248	0.00	30.018 
09:00	25.7	25.7	25.7	62	14.5	1	5	248	0.00	30.025 
09:05	25.8	25.8	25.8	62	14.6	2	6	248	0.00	30.025 
09:10	26.0	26.0	26.0	62	14.8	2	8	248	0.00	30.025 
09:15	26.1	26.1	26.1	62	14.9	1	9	248	0.00	30.026 
09:20	26.3	26.3	26.3	62	15.1	1	4	248	0.00	30.026 
09:25	26.6	26.6	26.6	62	15.4	2	6	248	0.00	30.026 
09:30	26.7	26.7	26.7	62	15.5	2	6	248	0.00	30.031 
09:35	26.9	26.9	26.9	61	15.3	2	7	248	0.00	30.031 
09:40	27.0	27.0	27.0	62	15.7	1	6	270	0.00	30.031 
09:45	27.2	27.2	27.2	61	15.6	1	5	248	0.00	30.037 
09:50	27.3	27.3	27.3	62	16.0	1	4	248	0.00	30.037 
09:55	27.3	27.3	27.3	61	15.7	1	5	248	0.00	30.037 
10:00	27.5	27.5	27.5	61	15.8	1	4	248	0.00	30.034 
10:05	27.5	27.5	27.5	62	16.2	2	6	248	0.00	30.034 
10:10	27.6	27.6	27.6	62	16.3	1	5	248	0.00	30.034 
10:15	27.8	27.8	27.8	62	16.5	1	3	248	0.00	30.022 
10:20	27.9	27.9	27.9	62	16.6	2	4	248	0.00	30.022 
10:25	27.9	27.9	27.9	62	16.6	1	4	248	0.00	30.022 
10:30	28.1	28.1	28.1	62	16.8	2	6	248	0.00	30.022 
10:35	28.2	28.2	28.2	61	16.5	2	5	248	0.00	30.022 
10:40	28.4	28.4	28.4	62	17.1	1	4	248	0.00	30.022 
10:45	28.4	28.4	28.4	62	17.1	1	5	248	0.00	30.016 
10:50	28.5	28.5	28.5	62	17.2	1	4	248	0.00	30.016 
10:55	28.5	28.5	28.5	62	17.2	1	5	248	0.00	30.016 
11:00	28.5	28.5	28.5	62	17.2	1	3	225	0.00	30.023 
11:05	28.5	28.5	28.5	62	17.2	1	3	225	0.00	30.023 
11:10	28.5	28.5	28.5	62	17.2	2	7	248	0.00	30.023 
11:15	28.5	28.5	28.5	62	17.2	1	4	248	0.00	30.026 
11:20	29.0	29.0	29.0	63	18.0	1	5	270	0.00	30.026 
11:25	29.4	29.4	29.4	62	18.0	2	9	248	0.00	30.026 
11:30	29.8	29.8	29.8	62	18.4	2	5	248	0.00	30.020 
11:35	30.3	30.3	30.3	61	18.5	2	8	270	0.00	30.020 
11:40	30.6	30.6	30.6	60	18.4	3	7	248	0.00	30.020 
11:45	30.9	30.9	30.9	60	18.7	3	7	248	0.00	30.003 
11:50	31.2	31.2	31.2	59	18.6	3	7	248	0.00	30.003 
11:55	31.6	31.6	31.6	59	18.9	2	5	248	0.00	30.003 
12:00	32.1	32.1	32.1	59	19.4	2	5	248	0.00	29.988 
12:05	32.5	32.5	32.5	58	19.4	2	4	248	0.00	29.988 
12:10	32.8	32.8	32.8	57	19.3	2	7	248	0.00	29.988 
12:15	33.1	33.1	33.1	57	19.5	2	6	248	0.00	29.970 
12:20	33.2	33.2	33.2	57	19.6	2	6	248	0.00	29.970 
12:25	33.5	33.5	33.5	56	19.5	2	5	248	0.00	29.970 
12:30	33.8	33.8	33.8	56	19.8	2	5	248	0.00	29.948 
12:35	34.0	34.0	34.0	56	20.0	2	6	248	0.00	29.948 
12:40	34.1	34.1	34.1	56	20.1	2	9	248	0.00	29.948 
12:45	34.1	34.1	34.1	55	19.6	3	11	248	0.00	29.944 
12:50	34.1	34.1	34.1	56	20.1	2	5	248	0.00	29.944 
12:55	34.3	34.3	34.3	56	20.3	2	4	248	0.00	29.944 
13:00	34.7	34.7	34.7	56	20.6	2	6	248	0.00	29.940 
13:05	34.7	34.7	34.7	55	20.2	2	5	248	0.00	29.940 
13:10	35.0	35.0	35.0	55	20.5	2	6	248	0.00	29.940 
13:15	35.3	35.3	35.3	55	20.8	2	5	270	0.00	29.939 
13:20	35.5	35.5	35.5	54	20.5	2	4	248	0.00	29.939 
13:25	35.8	35.8	35.8	54	20.8	1	3	248	0.00	29.939 
13:30	35.9	35.9	35.9	54	20.9	2	5	248	0.00	29.931 
13:35	35.9	35.9	35.9	55	21.3	2	4	270	0.00	29.931 
13:40	35.9	35.9	35.9	54	20.9	3	6	270	0.00	29.931 
13:45	35.8	35.8	35.8	55	21.2	3	6	248	0.00	29.935 
13:50	35.8	35.8	35.8	56	21.7	3	6	270	0.00	29.935 
13:55	35.8	35.8	35.8	56	21.7	3	5	248	0.00	29.935 
14:00	35.8	35.8	35.8	56	21.7	3	5	270	0.00	29.930 
14:05	35.8	35.8	35.8	56	21.7	3	5	248	0.00	29.930 
14:10	35.9	35.9	35.9	57	22.2	3	5	270	0.00	29.930 
14:15	36.0	36.0	36.0	56	21.8	2	5	270	0.00	29.935 
14:20	36.0	36.0	36.0	56	21.8	2	5	270	0.00	29.935 
14:25	36.2	36.2	36.2	57	22.5	2	5	270	0.00	29.935 
14:30	36.2	36.2	36.2	56	22.0	3	5	270	0.00	29.933 
14:35	36.2	36.2	36.2	57	22.5	3	5	270	0.00	29.933 
14:40	36.2	36.2	36.2	55	21.6	3	6	270	0.00	29.933 
14:45	36.2	36.2	36.2	56	22.0	3	4	248	0.00	29.934 
14:50	36.3	36.3	36.3	56	22.1	2	5	248	0.00	29.934 
14:55	36.5	36.5	36.5	56	22.3	2	7	248	0.00	29.934 
15:00	36.5	36.5	36.5	56	22.3	2	7	270	0.00	29.921 
15:05	36.5	36.5	36.5	56	22.3	1	7	248	0.00	29.921 
15:10	36.5	36.5	36.5	56	22.3	2	7	248	0.00	29.921 
15:15	36.6	36.6	36.6	56	22.4	2	6	248	0.00	29.916 
15:20	36.8	36.8	36.8	56	22.6	2	5	248	0.00	29.916 
15:25	36.8	36.8	36.8	56	22.6	3	5	270	0.00	29.916 
15:30	36.8	36.8	36.8	56	22.6	3	5	270	0.00	29.917 
15:35	36.8	36.8	36.8	57	23.0	2	5	248	0.00	29.917 
15:40	36.6	36.6	36.6	58	23.2	1	4	248	0.00	29.917 
15:45	36.6	36.6	36.6	57	22.8	3	5	270	0.00	29.930 
15:50	36.9	36.9	36.9	58	23.5	1	4	248	0.00	29.930 
15:55	37.0	37.0	37.0	57	23.2	2	4	248	0.00	29.930 
16:00	36.8	36.8	36.8	57	23.0	3	5	270	0.00	29.936 
16:05	36.6	36.6	36.6	58	23.2	2	5	270	0.00	29.936 
16:10	36.5	36.5	36.5	58	23.1	2	5	270	0.00	29.936 
16:15	36.5	36.5	36.5	59	23.6	1	4	248	0.00	29.939 
16:20	36.5	36.5	36.5	58	23.1	2	5	225	0.00	29.939 
16:25	36.5	36.5	36.5	59	23.6	1	2	225	0.00	29.939 
16:30	36.3	36.3	36.3	60	23.8	0	2	225	0.00	29.950 
16:35	36.2	36.2	36.2	60	23.7	1	3	225	0.00	29.950 
16:40	36.2	36.2	36.2	61	24.1	1	2	225	0.00	29.950 
16:45	36.0	36.0	36.0	61	23.9	2	4	225	0.00	29.959 
16:50	36.0	36.0	36.0	62	24.3	1	3	225	0.00	29.959 
16:55	36.0	36.0	36.0	62	24.3	1	3	225	0.00	29.959 
17:00	35.9	35.9	35.9	62	24.2	0	2	225	0.00	29.959 
17:05	35.9	35.9	35.9	63	24.5	0	3	225	0.00	29.959 
17:10	35.8	35.8	35.8	63	24.5	0	2	248	0.00	29.959 
17:15	35.8	35.8	35.8	63	24.5	0	2	248	0.00	29.964 
17:20	35.6	35.6	35.6	64	24.6	0	1	248	0.00	29.964 
17:25	35.6	35.6	35.6	64	24.6	0	2	248	0.00	29.964 
17:30	35.5	35.5	35.5	64	24.5	0	3	248	0.00	29.965 
17:35	35.3	35.3	35.3	64	24.4	0	1	248	0.00	29.965 
17:40	35.2	35.2	35.2	65	24.6	0	2	248	0.00	29.965 
17:45	34.9	34.9	34.9	65	24.3	0	1	248	0.00	29.969 
17:50	34.7	34.7	34.7	65	24.2	0	1	248	0.00	29.969 
17:55	34.7	34.7	34.7	66	24.5	0	1	248	0.00	29.969 
18:00	34.7	34.7	34.7	66	24.5	0	2	248	0.00	29.978 
18:05	34.7	34.7	34.7	67	24.9	0	1	248	0.00	29.978 
18:10	34.7	34.7	34.7	67	24.9	0	1	248	0.00	29.978 
18:15	34.7	34.7	34.7	67	24.9	0	1	248	0.00	29.980 
18:20	34.7	34.7	34.7	67	24.9	0	1	248	0.00	29.980 
18:25	34.9	34.9	34.9	67	25.1	0	1	248	0.00	29.980 
18:30	34.9	34.9	34.9	67	25.1	0	1	248	0.00	29.996 
18:35	34.9	34.9	34.9	67	25.1	0	1	248	0.00	29.996 
18:40	34.9	34.9	34.9	67	25.1	0	1	248	0.00	29.996 
18:45	34.9	34.9	34.9	68	25.4	0	1	248	0.00	29.993 
18:50	34.7	34.7	34.7	68	25.2	0	1	248	0.00	29.993 
18:55	34.6	34.6	34.6	68	25.1	0	1	248	0.00	29.993 
19:00	34.6	34.6	34.6	69	25.5	0	1	248	0.00	29.995 
19:05	34.6	34.6	34.6	69	25.5	0	1	248	0.00	29.995 
19:10	34.6	34.6	34.6	69	25.5	0	0	---	0.00	29.995 
19:15	34.6	34.6	34.6	69	25.5	0	2	248	0.00	29.991 
19:20	34.4	34.4	34.4	69	25.3	0	0	---	0.00	29.991 
19:25	34.4	34.4	34.4	69	25.3	0	1	248	0.00	29.991 
19:30	34.4	34.4	34.4	69	25.3	0	1	248	0.00	29.997 
19:35	34.6	34.6	34.6	69	25.5	0	1	248	0.00	29.997 
19:40	34.6	34.6	34.6	69	25.5	0	1	248	0.00	29.997 
19:45	34.6	34.6	34.6	68	25.1	0	2	248	0.00	30.013 
19:50	34.7	34.7	34.7	67	24.9	1	3	315	0.00	30.013 
19:55	34.7	34.7	34.7	66	24.5	1	3	315	0.00	30.013 
20:00	34.7	34.7	34.7	66	24.5	1	3	315	0.00	30.012 
20:05	34.7	34.7	34.7	65	24.2	1	3	315	0.00	30.012 
20:10	34.7	34.7	34.7	65	24.2	1	3	315	0.00	30.012 
20:15	34.7	34.7	34.7	64	23.8	1	3	315	0.00	30.010 
20:20	34.7	34.7	34.7	64	23.8	1	3	315	0.00	30.010 
20:25	34.6	34.6	34.6	64	23.7	1	4	315	0.00	30.010 
20:30	34.6	34.6	34.6	64	23.7	2	4	270	0.00	30.011 
20:35	34.6	34.6	34.6	64	23.7	1	3	270	0.00	30.011 
20:40	34.6	34.6	34.6	64	23.7	1	3	270	0.00	30.011 
20:45	34.6	34.6	34.6	64	23.7	1	3	270	0.00	30.014 
20:50	34.6	34.6	34.6	64	23.7	1	4	270	0.00	30.014 
20:55	34.6	34.6	34.6	64	23.7	1	3	270	0.00	30.014 
21:00	34.6	34.6	34.6	65	24.1	1	3	270	0.00	30.016 
21:05	34.6	34.6	34.6	65	24.1	1	3	292	0.00	30.016 
21:10	34.4	34.4	34.4	65	23.9	1	2	292	0.00	30.016 
21:15	34.4	34.4	34.4	66	24.2	1	3	292	0.00	30.016 
21:20	34.4	34.4	34.4	66	24.2	2	4	292	0.00	30.016 
21:25	34.4	34.4	34.4	67	24.6	1	5	292	0.00	30.016 
21:30	34.4	34.4	34.4	67	24.6	1	4	338	0.00	30.020 
21:35	34.3	34.3	34.3	67	24.5	1	4	338	0.00	30.020 
21:40	34.3	34.3	34.3	68	24.9	1	3	315	0.00	30.020 
21:45	34.3	34.3	34.3	69	25.2	1	4	315	0.00	30.021 
21:50	34.3	34.3	34.3	69	25.2	1	3	315	0.00	30.021 
21:55	34.3	34.3	34.3	69	25.2	1	4	338	0.00	30.021 
22:00	34.1	34.1	34.1	70	25.4	1	3	338	0.00	30.023 
22:05	34.1	34.1	34.1	70	25.4	1	3	338	0.00	30.023 
22:10	34.1	34.1	34.1	71	25.7	0	2	338	0.00	30.023 
22:15	34.0	34.0	34.0	71	25.6	1	3	338	0.00	30.025 
22:20	34.0	34.0	34.0	72	25.9	1	2	338	0.00	30.025 
22:25	33.8	33.8	33.8	72	25.7	1	3	338	0.00	30.025 
22:30	33.8	33.8	33.8	72	25.7	0	2	338	0.00	30.026 
22:35	33.8	33.8	33.8	73	26.1	1	3	338	0.00	30.026 
22:40	33.8	33.8	33.8	73	26.1	1	3	338	0.00	30.026 
22:45	33.8	33.8	33.8	73	26.1	1	3	338	0.00	30.022 
22:50	33.7	33.7	33.7	73	26.0	0	2	338	0.00	30.022 
22:55	33.7	33.7	33.7	73	26.0	1	2	338	0.00	30.022 
23:00	33.5	33.5	33.5	74	26.1	0	2	338	0.00	30.021 
23:05	33.5	33.5	33.5	74	26.1	1	3	338	0.00	30.021 
23:10	33.5	33.5	33.5	74	26.1	0	2	338	0.00	30.021 
23:15	33.5	33.5	33.5	74	26.1	1	3	338	0.00	30.009 
23:20	33.4	33.4	33.4	74	26.0	1	2	338	0.00	30.009 
23:25	33.4	33.4	33.4	75	26.3	0	2	338	0.00	30.009 
23:30	33.4	33.4	33.4	75	26.3	1	3	338	0.00	30.016 
23:35	33.2	33.2	33.2	76	26.5	1	2	338	0.00	30.016 
23:40	33.1	33.1	33.1	76	26.4	0	1	338	0.00	30.016 
23:45	33.1	33.1	33.1	76	26.4	0	2	338	0.00	30.012 
23:50	32.9	32.9	32.9	76	26.2	0	1	338	0.00	30.012 
23:55	32.9	32.9	32.9	77	26.5	0	2	338	0.00	30.012 

CoCoRaHS
IN-AL-39
A2 Web Hosting
Creative Commons License
GoDaddy
search engine by freefind advanced

loaded 2018-11-16 11:46:19 • last modified 2010-11-18 10:43:29
Privacy PolicyDisclaimer
• wx.awcolley.com is powered by PmWiki v.2002016 •
• all content (unless otherwise noted) © 2018 A W Colley